Time,TemperatureF,DewpointF,PressureIn,WindDirection,WindDirectionDegrees,WindSpeedMPH,WindSpeedGustMPH,Humidity,HourlyPrecipIn,Conditions,Clouds,dailyrainin,SolarRadiationWatts/m^2,SoftwareType,DateUTC
2013-06-16 00:01:00,71.0,67.0,-100.00,South,170,1.0,4.0,87,0.00,,,0.00,0.000000,,2013-06-16 05:01:00,
2013-06-16 00:12:00,71.0,67.0,-100.00,South,170,1.0,4.0,87,0.00,,,0.00,0.000000,,2013-06-16 05:12:00,
2013-06-16 00:22:00,71.0,67.0,-100.00,South,170,1.0,4.0,87,0.00,,,0.00,0.000000,,2013-06-16 05:22:00,
2013-06-16 00:31:00,71.0,67.0,-100.00,South,179,0.0,4.0,87,0.00,,,0.00,0.000000,,2013-06-16 05:31:00,
2013-06-16 00:52:00,71.0,67.0,-100.00,South,179,0.0,4.0,87,0.00,,,0.00,0.000000,,2013-06-16 05:52:00,
2013-06-16 01:01:00,71.0,67.0,-100.00,South,179,0.0,4.0,87,0.00,,,0.00,0.000000,,2013-06-16 06:01:00,
2013-06-16 01:11:00,71.0,67.0,-100.00,South,179,0.0,4.0,87,0.00,,,0.00,0.000000,,2013-06-16 06:11:00,
2013-06-16 01:22:00,71.0,67.0,-100.00,South,179,0.0,4.0,87,0.00,,,0.00,0.000000,,2013-06-16 06:22:00,
2013-06-16 01:31:00,73.0,66.0,-100.00,West,271,1.0,3.0,80,0.00,,,0.00,0.000000,,2013-06-16 06:31:00,
2013-06-16 01:52:00,73.0,66.0,-100.00,West,271,1.0,3.0,80,0.00,,,0.00,0.000000,,2013-06-16 06:52:00,
2013-06-16 02:01:00,73.0,66.0,-100.00,West,271,1.0,3.0,80,0.00,,,0.00,0.000000,,2013-06-16 07:01:00,
2013-06-16 02:11:00,73.0,66.0,-100.00,West,271,1.0,3.0,80,0.00,,,0.00,0.000000,,2013-06-16 07:11:00,
2013-06-16 02:22:00,73.0,66.0,-100.00,West,271,1.0,3.0,80,0.00,,,0.00,0.000000,,2013-06-16 07:22:00,
2013-06-16 02:31:00,71.0,67.0,-100.00,SW,232,0.0,4.0,86,0.00,,,0.00,0.000000,,2013-06-16 07:31:00,
2013-06-16 02:53:00,71.0,67.0,-100.00,SW,232,0.0,4.0,86,0.00,,,0.00,0.000000,,2013-06-16 07:53:00,
2013-06-16 03:02:00,71.0,67.0,-100.00,SW,232,0.0,4.0,86,0.00,,,0.00,0.000000,,2013-06-16 08:02:00,
2013-06-16 03:12:00,71.0,67.0,-100.00,SW,232,0.0,4.0,86,0.00,,,0.00,0.000000,,2013-06-16 08:12:00,
2013-06-16 03:22:00,71.0,67.0,-100.00,SW,232,0.0,4.0,86,0.00,,,0.00,0.000000,,2013-06-16 08:22:00,
2013-06-16 03:31:00,70.0,66.0,-100.00,SSW,198,0.0,3.0,86,0.00,,,0.00,0.000000,,2013-06-16 08:31:00,
2013-06-16 03:54:00,70.0,66.0,-100.00,SSW,198,0.0,3.0,86,0.00,,,0.00,0.000000,,2013-06-16 08:54:00,
2013-06-16 04:02:00,70.0,66.0,-100.00,SSW,198,0.0,3.0,86,0.00,,,0.00,0.000000,,2013-06-16 09:02:00,
2013-06-16 04:11:00,70.0,66.0,-100.00,SSW,198,0.0,3.0,86,0.00,,,0.00,0.000000,,2013-06-16 09:11:00,
2013-06-16 04:22:00,70.0,66.0,-100.00,SSW,198,0.0,3.0,86,0.00,,,0.00,0.000000,,2013-06-16 09:22:00,
2013-06-16 04:31:00,69.0,65.0,-100.00,SW,216,0.0,3.0,88,0.00,,,0.00,0.000000,,2013-06-16 09:31:00,
2013-06-16 04:52:00,69.0,65.0,-100.00,SW,216,0.0,3.0,88,0.00,,,0.00,0.000000,,2013-06-16 09:52:00,
2013-06-16 05:02:00,69.0,65.0,-100.00,SW,216,0.0,3.0,88,0.00,,,0.00,0.000000,,2013-06-16 10:02:00,
2013-06-16 05:12:00,69.0,65.0,-100.00,SW,216,0.0,3.0,88,0.00,,,0.00,0.000000,,2013-06-16 10:12:00,
2013-06-16 05:22:00,69.0,65.0,-100.00,SW,216,0.0,3.0,88,0.00,,,0.00,0.000000,,2013-06-16 10:22:00,
2013-06-16 05:31:00,69.0,66.0,-100.00,SSE,165,0.0,3.0,89,0.00,,,0.00,0.000000,,2013-06-16 10:31:00,
2013-06-16 05:54:00,69.0,66.0,-100.00,SSE,165,0.0,3.0,89,0.00,,,0.00,0.000000,,2013-06-16 10:54:00,
2013-06-16 06:02:00,69.0,66.0,-100.00,SSE,165,0.0,3.0,89,0.00,,,0.00,0.000000,,2013-06-16 11:02:00,
2013-06-16 06:11:00,69.0,66.0,-100.00,SSE,165,0.0,3.0,89,0.00,,,0.00,0.000000,,2013-06-16 11:11:00,
2013-06-16 06:22:00,69.0,66.0,-100.00,SSE,165,0.0,3.0,89,0.00,,,0.00,0.000000,,2013-06-16 11:22:00,
2013-06-16 06:31:00,69.0,66.0,-100.00,SSE,156,0.0,2.0,90,0.00,,,0.00,22.000000,,2013-06-16 11:31:00,
2013-06-16 06:53:00,69.0,66.0,-100.00,SSE,156,0.0,2.0,90,0.00,,,0.00,22.000000,,2013-06-16 11:53:00,
2013-06-16 07:02:00,69.0,66.0,-100.00,SSE,156,0.0,2.0,90,0.00,,,0.00,22.000000,,2013-06-16 12:02:00,
2013-06-16 07:12:00,69.0,66.0,-100.00,SSE,156,0.0,2.0,90,0.00,,,0.00,22.000000,,2013-06-16 12:12:00,
2013-06-16 07:22:00,69.0,66.0,-100.00,SSE,156,0.0,2.0,90,0.00,,,0.00,22.000000,,2013-06-16 12:22:00,
2013-06-16 07:31:00,72.0,68.0,-100.00,North,353,2.0,4.0,87,0.00,,,0.00,63.000000,,2013-06-16 12:31:00,
2013-06-16 07:53:00,72.0,68.0,-100.00,North,353,2.0,4.0,87,0.00,,,0.00,63.000000,,2013-06-16 12:53:00,
2013-06-16 08:01:00,72.0,68.0,-100.00,North,353,2.0,4.0,87,0.00,,,0.00,63.000000,,2013-06-16 13:01:00,
2013-06-16 08:11:00,72.0,68.0,-100.00,North,353,2.0,4.0,87,0.00,,,0.00,63.000000,,2013-06-16 13:11:00,
2013-06-16 08:22:00,72.0,68.0,-100.00,North,353,2.0,4.0,87,0.00,,,0.00,63.000000,,2013-06-16 13:22:00,
2013-06-16 08:31:00,75.0,68.0,-100.00,South,175,2.0,4.0,79,0.00,,,0.00,161.000000,,2013-06-16 13:31:00,
2013-06-16 08:54:00,75.0,68.0,-100.00,South,175,2.0,4.0,79,0.00,,,0.00,161.000000,,2013-06-16 13:54:00,
2013-06-16 09:02:00,75.0,68.0,-100.00,South,175,2.0,4.0,79,0.00,,,0.00,161.000000,,2013-06-16 14:02:00,
2013-06-16 09:12:00,75.0,68.0,-100.00,South,175,2.0,4.0,79,0.00,,,0.00,161.000000,,2013-06-16 14:12:00,
2013-06-16 09:22:00,75.0,68.0,-100.00,South,175,2.0,4.0,79,0.00,,,0.00,161.000000,,2013-06-16 14:22:00,
2013-06-16 09:31:00,76.0,68.0,-100.00,South,175,3.0,6.0,77,0.00,,,0.00,229.000000,,2013-06-16 14:31:00,
2013-06-16 09:53:00,76.0,68.0,-100.00,South,175,3.0,6.0,77,0.00,,,0.00,229.000000,,2013-06-16 14:53:00,
2013-06-16 10:02:00,76.0,68.0,-100.00,South,175,3.0,6.0,77,0.00,,,0.00,229.000000,,2013-06-16 15:02:00,
2013-06-16 10:12:00,76.0,68.0,-100.00,South,175,3.0,6.0,77,0.00,,,0.00,229.000000,,2013-06-16 15:12:00,
2013-06-16 10:23:00,76.0,68.0,-100.00,South,175,3.0,6.0,77,0.00,,,0.00,229.000000,,2013-06-16 15:23:00,
2013-06-16 10:31:00,80.0,70.0,-100.00,SSW,195,3.0,8.0,71,0.00,,,0.00,414.000000,,2013-06-16 15:31:00,
2013-06-16 10:53:00,80.0,70.0,-100.00,SSW,195,3.0,8.0,71,0.00,,,0.00,414.000000,,2013-06-16 15:53:00,
2013-06-16 11:02:00,80.0,70.0,-100.00,SSW,195,3.0,8.0,71,0.00,,,0.00,414.000000,,2013-06-16 16:02:00,
2013-06-16 11:12:00,80.0,70.0,-100.00,SSW,195,3.0,8.0,71,0.00,,,0.00,414.000000,,2013-06-16 16:12:00,
2013-06-16 11:23:00,80.0,70.0,-100.00,SSW,195,3.0,8.0,71,0.00,,,0.00,414.000000,,2013-06-16 16:23:00,
2013-06-16 11:31:00,82.0,70.0,-100.00,SSE,159,3.0,9.0,68,0.00,,,0.00,559.000000,,2013-06-16 16:31:00,
2013-06-16 11:53:00,82.0,70.0,-100.00,SSE,159,3.0,9.0,68,0.00,,,0.00,559.000000,,2013-06-16 16:53:00,
2013-06-16 12:02:00,82.0,70.0,-100.00,SSE,159,3.0,9.0,68,0.00,,,0.00,559.000000,,2013-06-16 17:02:00,
2013-06-16 12:12:00,82.0,70.0,-100.00,SSE,159,3.0,9.0,68,0.00,,,0.00,559.000000,,2013-06-16 17:12:00,
2013-06-16 12:22:00,82.0,70.0,-100.00,SSE,159,3.0,9.0,68,0.00,,,0.00,559.000000,,2013-06-16 17:22:00,
2013-06-16 12:31:00,83.0,70.0,-100.00,SSE,164,5.0,10.0,65,0.00,,,0.00,672.000000,,2013-06-16 17:31:00,
2013-06-16 12:53:00,83.0,70.0,-100.00,SSE,164,5.0,10.0,65,0.00,,,0.00,672.000000,,2013-06-16 17:53:00,
2013-06-16 13:02:00,83.0,70.0,-100.00,SSE,164,5.0,10.0,65,0.00,,,0.00,672.000000,,2013-06-16 18:02:00,
2013-06-16 13:12:00,83.0,70.0,-100.00,SSE,164,5.0,10.0,65,0.00,,,0.00,672.000000,,2013-06-16 18:12:00,
2013-06-16 13:22:00,83.0,70.0,-100.00,SSE,164,5.0,10.0,65,0.00,,,0.00,672.000000,,2013-06-16 18:22:00,
2013-06-16 13:31:00,86.0,71.0,-100.00,SSW,197,3.0,10.0,61,0.00,,,0.00,697.000000,,2013-06-16 18:31:00,
2013-06-16 13:52:00,86.0,71.0,-100.00,SSW,197,3.0,10.0,61,0.00,,,0.00,697.000000,,2013-06-16 18:52:00,
2013-06-16 14:01:00,86.0,71.0,-100.00,SSW,197,3.0,10.0,61,0.00,,,0.00,697.000000,,2013-06-16 19:01:00,
2013-06-16 14:11:00,86.0,71.0,-100.00,SSW,197,3.0,10.0,61,0.00,,,0.00,697.000000,,2013-06-16 19:11:00,
2013-06-16 14:22:00,86.0,71.0,-100.00,SSW,197,3.0,10.0,61,0.00,,,0.00,697.000000,,2013-06-16 19:22:00,
2013-06-16 14:31:00,90.0,69.0,-100.00,WSW,247,4.0,11.0,51,0.00,,,0.00,740.000000,,2013-06-16 19:31:00,
2013-06-16 14:53:00,90.0,69.0,-100.00,WSW,247,4.0,11.0,51,0.00,,,0.00,740.000000,,2013-06-16 19:53:00,
2013-06-16 15:02:00,90.0,69.0,-100.00,WSW,247,4.0,11.0,51,0.00,,,0.00,740.000000,,2013-06-16 20:02:00,
2013-06-16 15:11:00,90.0,69.0,-100.00,WSW,247,4.0,11.0,51,0.00,,,0.00,740.000000,,2013-06-16 20:11:00,
2013-06-16 15:22:00,90.0,69.0,-100.00,WSW,247,4.0,11.0,51,0.00,,,0.00,740.000000,,2013-06-16 20:22:00,
2013-06-16 15:31:00,87.0,68.0,-100.00,West,276,3.0,6.0,54,0.00,,,0.00,602.000000,,2013-06-16 20:31:00,
2013-06-16 15:53:00,87.0,68.0,-100.00,West,276,3.0,6.0,54,0.00,,,0.00,602.000000,,2013-06-16 20:53:00,
2013-06-16 16:02:00,87.0,68.0,-100.00,West,276,3.0,6.0,54,0.00,,,0.00,602.000000,,2013-06-16 21:02:00,
2013-06-16 16:11:00,87.0,68.0,-100.00,West,276,3.0,6.0,54,0.00,,,0.00,602.000000,,2013-06-16 21:11:00,
2013-06-16 16:22:00,87.0,68.0,-100.00,West,276,3.0,6.0,54,0.00,,,0.00,602.000000,,2013-06-16 21:22:00,
2013-06-16 16:31:00,82.0,76.0,-100.00,West,281,0.0,5.0,83,0.01,,,-99.99,175.000000,,2013-06-16 21:31:00,
2013-06-16 17:12:00,82.0,76.0,-100.00,West,281,0.0,5.0,83,0.01,,,-99.99,175.000000,,2013-06-16 22:12:00,
2013-06-16 17:22:00,82.0,76.0,-100.00,West,281,0.0,5.0,83,0.01,,,-99.99,175.000000,,2013-06-16 22:22:00,
2013-06-16 17:31:00,83.0,76.0,-100.00,NNE,18,0.0,2.0,79,0.00,,,0.01,190.000000,,2013-06-16 22:31:00,
2013-06-16 17:52:00,83.0,76.0,-100.00,NNE,18,0.0,2.0,79,0.00,,,0.01,190.000000,,2013-06-16 22:52:00,
2013-06-16 18:01:00,83.0,76.0,-100.00,NNE,18,0.0,2.0,79,0.00,,,0.01,190.000000,,2013-06-16 23:01:00,
2013-06-16 18:11:00,83.0,76.0,-100.00,NNE,18,0.0,2.0,79,0.00,,,0.01,190.000000,,2013-06-16 23:11:00,
2013-06-16 18:22:00,83.0,76.0,-100.00,NNE,18,0.0,2.0,79,0.00,,,0.01,190.000000,,2013-06-16 23:22:00,
2013-06-16 18:31:00,82.0,75.0,-100.00,ESE,109,1.0,3.0,80,0.00,,,0.01,126.000000,,2013-06-16 23:31:00,
2013-06-16 18:52:00,82.0,75.0,-100.00,ESE,109,1.0,3.0,80,0.00,,,0.01,126.000000,,2013-06-16 23:52:00,
2013-06-16 19:02:00,82.0,75.0,-100.00,ESE,109,1.0,3.0,80,0.00,,,0.01,126.000000,,2013-06-17 00:02:00,
2013-06-16 19:11:00,82.0,75.0,-100.00,ESE,109,1.0,3.0,80,0.00,,,0.01,126.000000,,2013-06-17 00:11:00,
2013-06-16 19:22:00,82.0,75.0,-100.00,ESE,109,1.0,3.0,80,0.00,,,0.01,126.000000,,2013-06-17 00:22:00,
2013-06-16 19:31:00,81.0,74.0,-100.00,SE,131,2.0,4.0,79,0.00,,,0.01,104.000000,,2013-06-17 00:31:00,
2013-06-16 19:52:00,81.0,74.0,-100.00,SE,131,2.0,4.0,79,0.00,,,0.01,104.000000,,2013-06-17 00:52:00,
2013-06-16 20:02:00,81.0,74.0,-100.00,SE,131,2.0,4.0,79,0.00,,,0.01,104.000000,,2013-06-17 01:02:00,
2013-06-16 20:12:00,81.0,74.0,-100.00,SE,131,2.0,4.0,79,0.00,,,0.01,104.000000,,2013-06-17 01:12:00,
2013-06-16 20:22:00,81.0,74.0,-100.00,SE,131,2.0,4.0,79,0.00,,,0.01,104.000000,,2013-06-17 01:22:00,
2013-06-16 20:31:00,77.0,72.0,-100.00,SSE,152,1.0,4.0,86,0.00,,,0.01,18.000000,,2013-06-17 01:31:00,
2013-06-16 20:53:00,77.0,72.0,-100.00,SSE,152,1.0,4.0,86,0.00,,,0.01,18.000000,,2013-06-17 01:53:00,
2013-06-16 21:02:00,77.0,72.0,-100.00,SSE,152,1.0,4.0,86,0.00,,,0.01,18.000000,,2013-06-17 02:02:00,
2013-06-16 21:12:00,77.0,72.0,-100.00,SSE,152,1.0,4.0,86,0.00,,,0.01,18.000000,,2013-06-17 02:12:00,
2013-06-16 21:22:00,77.0,72.0,-100.00,SSE,152,1.0,4.0,86,0.00,,,0.01,18.000000,,2013-06-17 02:22:00,
2013-06-16 21:31:00,74.0,72.0,-100.00,South,172,0.0,3.0,94,0.00,,,0.01,0.000000,,2013-06-17 02:31:00,
2013-06-16 21:53:00,74.0,72.0,-100.00,South,172,0.0,3.0,94,0.00,,,0.01,0.000000,,2013-06-17 02:53:00,
2013-06-16 22:02:00,74.0,72.0,-100.00,South,172,0.0,3.0,94,0.00,,,0.01,0.000000,,2013-06-17 03:02:00,
2013-06-16 22:12:00,74.0,72.0,-100.00,South,172,0.0,3.0,94,0.00,,,0.01,0.000000,,2013-06-17 03:12:00,
2013-06-16 22:22:00,74.0,72.0,-100.00,South,172,0.0,3.0,94,0.00,,,0.01,0.000000,,2013-06-17 03:22:00,
2013-06-16 22:31:00,73.0,72.0,-100.00,SW,232,0.0,2.0,96,0.00,,,0.01,0.000000,,2013-06-17 03:31:00,
2013-06-16 22:54:00,73.0,72.0,-100.00,SW,232,0.0,2.0,96,0.00,,,0.01,0.000000,,2013-06-17 03:54:00,
2013-06-16 23:02:00,73.0,72.0,-100.00,SW,232,0.0,2.0,96,0.00,,,0.01,0.000000,,2013-06-17 04:02:00,
2013-06-16 23:12:00,73.0,72.0,-100.00,SW,232,0.0,2.0,96,0.00,,,0.01,0.000000,,2013-06-17 04:12:00,
2013-06-16 23:22:00,73.0,72.0,-100.00,SW,232,0.0,2.0,96,0.00,,,0.01,0.000000,,2013-06-17 04:22:00,
2013-06-16 23:31:00,72.0,71.0,-100.00,SW,214,0.0,3.0,97,0.00,,,0.01,0.000000,,2013-06-17 04:31:00,
2013-06-16 23:53:00,72.0,71.0,-100.00,SW,214,0.0,3.0,97,0.00,,,0.01,0.000000,,2013-06-17 04:53:00,